KLAS/LAS METAR and TAF weather

Enter ICAO airport designator
Station Type Date Time Source
KLAS METAR 2019/06/27 09:56 UTC NOAA

KLAS 270956Z 19008KT 10SM CLR 27/03 A2986 RMK AO2 SLP082 T02720028


Station Type Date Time Source
KLAS Decoded METAR 2019/06/27 09:56 UTC NOAA

MCCARRAN INTERNATIONAL AIRPORT , NV, United States (KLAS) 36-07N 115-16W 636M
Jun 27, 2019 - 05:56 AM EDT / 2019.06.27 0956 UTC
Wind: from the S (190 degrees) at 9 MPH (8 KT):0
Visibility: 10 mile(s):0
Sky conditions: clear
Temperature: 81.0 F (27.2 C)
Dew Point: 37.0 F (2.8 C)
Relative Humidity: 20%
Pressure (altimeter): 29.86 in. Hg (1011 hPa)
ob: KLAS 270956Z 19008KT 10SM CLR 27/03 A2986 RMK AO2 SLP082 T02720028
cycle: 10

Station Type Date Time Source
KLAS TAF 2019/06/27 06:42 UTC NOAA

TAF KLAS 270538Z 2706/2812 17012KT P6SM FEW250
FM270900 20012KT P6SM FEW250
FM271600 19015G25KT P6SM FEW250
FM280400 18012KT P6SM FEW250

Example: see airport list